Time;durP1;ratioP1;P1;durP2;ratioP2;P2;SDS_P1;SDS_P2;PMS_P1;PMS_P2;Temp;Humidity;BMP_temperature;BMP_pressure;BME280_temperature;BME280_humidity;BME280_pressure;Samples;Min_cycle;Max_cycle;Signal;HPM_P1;HPM_P2
2022/03/04 00:01:28;;;;;;;17.52;11.55;;;;;;;7.82;39.16;101849.13;5094164;28;20089;-64
2022/03/04 00:03:55;;;;;;;18.42;11.45;;;;;;;7.78;39.07;101837.69;5093952;28;20072;-63
2022/03/04 00:06:22;;;;;;;17.95;10.70;;;;;;;7.75;39.26;101843.16;5093825;28;20093;-63
2022/03/04 00:08:50;;;;;;;16.27;10.50;;;;;;;7.72;39.31;101840.63;5093680;28;20044;-64
2022/03/04 00:11:17;;;;;;;15.80;10.43;;;;;;;7.69;39.14;101840.75;5093789;28;20042;-64
2022/03/04 00:13:44;;;;;;;17.23;11.32;;;;;;;7.69;39.14;101847.91;5093771;28;20040;-64
2022/03/04 00:16:11;;;;;;;16.40;10.90;;;;;;;7.68;39.33;101835.47;5093789;28;20442;-64
2022/03/04 00:18:38;;;;;;;15.93;10.52;;;;;;;7.68;39.38;101848.84;5093474;28;20042;-65
2022/03/04 00:21:04;;;;;;;14.75;10.27;;;;;;;7.65;39.34;101848.06;5092157;28;20044;-63
2022/03/04 00:23:32;;;;;;;16.33;10.95;;;;;;;7.63;39.42;101855.25;5092482;28;20058;-64
2022/03/04 00:25:59;;;;;;;15.13;10.55;;;;;;;7.60;39.37;101857.19;5092553;28;20054;-64
2022/03/04 00:28:26;;;;;;;17.42;10.80;;;;;;;7.56;39.43;101856.47;5109066;28;20450;-64
2022/03/04 00:30:53;;;;;;;15.40;10.82;;;;;;;7.55;39.47;101861.88;5093964;28;20471;-64
2022/03/04 00:33:19;;;;;;;16.48;10.57;;;;;;;7.54;39.68;101865.47;5093324;28;20446;-64
2022/03/04 00:35:46;;;;;;;13.82;10.13;;;;;;;7.51;39.56;101868.28;5093622;28;20040;-63
2022/03/04 00:38:13;;;;;;;15.85;11.00;;;;;;;7.48;39.64;101863.06;5093462;28;20040;-63
2022/03/04 00:40:39;;;;;;;17.42;11.20;;;;;;;7.46;39.60;101870.28;5093430;28;20040;-65
2022/03/04 00:43:06;;;;;;;18.40;11.48;;;;;;;7.43;39.92;101865.94;5093379;28;20040;-64
2022/03/04 00:45:33;;;;;;;19.65;11.57;;;;;;;7.43;39.72;101870.38;5092004;28;20044;-63
2022/03/04 00:47:59;;;;;;;16.67;11.43;;;;;;;7.41;39.77;101873.13;5093192;28;20447;-64
2022/03/04 00:50:26;;;;;;;17.27;11.25;;;;;;;7.42;39.75;101865.97;5092035;28;20143;-63
2022/03/04 00:52:52;;;;;;;16.92;11.63;;;;;;;7.41;39.83;101861.56;5093573;28;20044;-64
2022/03/04 00:55:19;;;;;;;18.83;12.88;;;;;;;7.40;39.84;101860.69;5093408;28;20091;-64
2022/03/04 00:57:46;;;;;;;15.00;10.77;;;;;;;7.39;39.88;101864.28;5093118;28;20044;-64
2022/03/04 01:00:13;;;;;;;17.38;11.35;;;;;;;7.36;39.96;101861.75;5093528;28;20123;-64
2022/03/04 01:02:40;;;;;;;20.08;12.52;;;;;;;7.30;40.07;101865.53;5093297;28;20047;-65
2022/03/04 01:05:07;;;;;;;17.98;11.77;;;;;;;7.25;40.04;101862.19;5096564;28;20047;-64
2022/03/04 01:07:34;;;;;;;20.02;12.25;;;;;;;7.24;39.98;101872.94;5097128;28;20101;-64
2022/03/04 01:10:00;;;;;;;18.05;12.20;;;;;;;7.23;40.19;101868.53;5097258;28;20176;-64
2022/03/04 01:12:27;;;;;;;20.30;11.52;;;;;;;7.22;40.29;101866.78;5097077;28;20083;-65
2022/03/04 01:14:55;;;;;;;19.90;12.00;;;;;;;7.20;40.14;101868.66;5097533;28;20044;-65
2022/03/04 01:17:21;;;;;;;16.33;11.57;;;;;;;7.18;40.15;101866.03;5097380;28;20044;-64
2022/03/04 01:19:48;;;;;;;21.58;12.32;;;;;;;7.16;40.38;101864.38;5097113;28;20048;-65
2022/03/04 01:22:15;;;;;;;19.73;12.02;;;;;;;7.10;40.39;101864.63;5096888;28;20427;-65
2022/03/04 01:24:42;;;;;;;19.08;11.90;;;;;;;7.08;40.35;101870.03;5096125;28;20056;-64
2022/03/04 01:27:08;;;;;;;20.25;12.60;;;;;;;7.05;40.31;101872.81;5096731;28;20519;-64
2022/03/04 01:29:35;;;;;;;18.25;12.38;;;;;;;7.02;40.51;101870.25;5096525;28;20047;-64
2022/03/04 01:32:02;;;;;;;21.50;12.50;;;;;;;6.96;40.43;101868.72;5096998;28;20068;-62
2022/03/04 01:34:28;;;;;;;18.85;12.95;;;;;;;6.92;40.45;101863.56;5097072;28;20131;-63
2022/03/04 01:36:55;;;;;;;20.13;12.82;;;;;;;6.88;40.52;101870.81;5096731;28;20111;-64
2022/03/04 01:39:21;;;;;;;20.20;13.20;;;;;;;6.86;40.64;101862.00;5096641;28;20055;-64
2022/03/04 01:41:48;;;;;;;20.35;13.63;;;;;;;6.86;40.67;101862.00;5096510;28;20115;-63
2022/03/04 01:44:16;;;;;;;20.40;14.00;;;;;;;6.86;40.72;101863.78;5096336;28;20062;-64
2022/03/04 01:46:43;;;;;;;20.85;13.63;;;;;;;6.85;40.88;101872.72;5096451;28;20122;-64
2022/03/04 01:49:10;;;;;;;21.25;13.80;;;;;;;6.78;40.85;101866.78;5096257;28;20103;-64
2022/03/04 01:51:36;;;;;;;18.88;13.43;;;;;;;6.74;40.94;101862.47;5096514;28;20135;-64
2022/03/04 01:54:03;;;;;;;23.45;14.30;;;;;;;6.73;40.92;101866.06;5096223;28;20044;-63
2022/03/04 01:56:30;;;;;;;20.70;13.15;;;;;;;6.73;41.06;101854.53;5096350;28;20048;-64
2022/03/04 01:58:57;;;;;;;17.95;12.32;;;;;;;6.73;41.06;101857.19;5096158;28;20131;-64
2022/03/04 02:01:24;;;;;;;20.50;13.73;;;;;;;6.72;41.09;101848.31;5096286;28;20079;-65
2022/03/04 02:03:50;;;;;;;17.33;12.57;;;;;;;6.74;41.13;101851.81;5095118;28;20051;-63
2022/03/04 02:06:17;;;;;;;21.80;13.40;;;;;;;6.74;41.22;101854.47;5096128;28;20090;-63
2022/03/04 02:08:44;;;;;;;21.20;14.13;;;;;;;6.71;41.26;101849.25;5095977;28;20044;-64
2022/03/04 02:11:11;;;;;;;22.58;13.25;;;;;;;6.68;41.22;101849.34;5095900;28;20044;-63
2022/03/04 02:13:39;;;;;;;19.45;13.13;;;;;;;6.64;41.21;101851.25;5096689;28;20055;-64
2022/03/04 02:16:24;;;;;;;19.55;12.55;;;;;;;6.61;41.42;101845.16;5095073;28;20046;-63
2022/03/04 02:18:51;;;;;;;;;;;;;;;6.61;41.33;101854.03;5096307;28;20126;-63
2022/03/04 02:21:20;;;;;;;20.13;12.27;;;;;;;6.64;41.22;101845.91;5095852;28;19927;-63
2022/03/04 02:23:47;;;;;;;19.95;12.73;;;;;;;6.64;41.25;101851.25;5095838;28;20040;-63
2022/03/04 02:26:14;;;;;;;22.77;12.57;;;;;;;6.64;41.31;101847.72;5096128;28;20083;-63
2022/03/04 02:28:41;;;;;;;20.80;12.80;;;;;;;6.64;41.36;101847.72;5095555;28;20040;-63
2022/03/04 02:31:07;;;;;;;26.88;14.65;;;;;;;6.64;41.28;101847.72;5095680;28;20178;-63
2022/03/04 02:33:34;;;;;;;20.58;13.40;;;;;;;6.64;41.16;101851.25;5095646;28;20059;-63
2022/03/04 02:36:00;;;;;;;19.05;12.75;;;;;;;6.63;41.38;101857.53;5095686;28;20075;-63
2022/03/04 02:38:27;;;;;;;19.77;12.75;;;;;;;6.63;41.39;101862.88;5095397;28;20075;-63
2022/03/04 02:40:54;;;;;;;24.25;13.95;;;;;;;6.63;41.38;101860.19;5095395;28;20485;-63
2022/03/04 02:43:21;;;;;;;20.40;12.85;;;;;;;6.62;41.48;101857.59;5095389;28;20093;-63
2022/03/04 02:45:47;;;;;;;23.77;14.10;;;;;;;6.61;41.26;101858.50;5093804;28;20040;-63
2022/03/04 02:48:14;;;;;;;19.38;14.40;;;;;;;6.60;41.39;101851.44;5095349;28;20409;-63
2022/03/04 02:50:41;;;;;;;21.33;13.13;;;;;;;6.59;41.31;101855.91;5095057;28;20036;-63
2022/03/04 02:53:07;;;;;;;19.73;13.07;;;;;;;6.58;41.29;101851.50;5095219;28;20512;-63
2022/03/04 02:55:34;;;;;;;21.75;13.35;;;;;;;6.54;41.54;101852.53;5095395;28;20047;-62
2022/03/04 02:58:01;;;;;;;23.27;14.38;;;;;;;6.50;41.43;101850.03;5094957;28;20039;-63
2022/03/04 03:00:28;;;;;;;21.92;14.15;;;;;;;6.48;41.54;101843.91;5093799;28;20135;-63
2022/03/04 03:02:55;;;;;;;23.05;13.50;;;;;;;6.48;41.44;101846.56;5093941;28;20036;-63
2022/03/04 03:05:22;;;;;;;22.00;13.80;;;;;;;6.44;41.52;101843.16;5093720;28;20485;-63
2022/03/04 03:07:48;;;;;;;21.52;13.88;;;;;;;6.42;41.51;101850.34;5094788;28;20075;-63
2022/03/04 03:10:15;;;;;;;21.00;13.93;;;;;;;6.40;41.53;101854.88;5094746;28;20056;-63
2022/03/04 03:12:42;;;;;;;19.60;13.50;;;;;;;6.36;41.64;101851.44;5094924;28;20471;-63
2022/03/04 03:15:10;;;;;;;21.85;13.95;;;;;;;6.31;41.75;101861.41;5094435;28;20036;-63
2022/03/04 03:17:38;;;;;;;20.30;13.10;;;;;;;6.29;41.64;101857.06;5094550;28;20119;-64
2022/03/04 03:20:07;;;;;;;22.58;14.68;;;;;;;6.25;41.71;101861.63;5094636;28;20047;-63
2022/03/04 03:22:34;;;;;;;21.35;13.98;;;;;;;6.23;41.82;101859.97;5094790;28;20040;-63
2022/03/04 03:25:01;;;;;;;22.05;13.35;;;;;;;6.19;41.79;101864.53;5094669;28;20048;-64
2022/03/04 03:27:28;;;;;;;20.98;13.55;;;;;;;6.16;41.71;101859.31;5092285;28;20455;-64
2022/03/04 03:29:55;;;;;;;25.00;14.18;;;;;;;6.13;41.82;101874.56;5094565;28;20043;-64
2022/03/04 03:32:21;;;;;;;23.80;13.60;;;;;;;6.08;42.00;101871.19;5093027;28;20096;-64
2022/03/04 03:34:48;;;;;;;24.70;14.38;;;;;;;6.04;42.03;101868.63;5094822;28;20174;-64
2022/03/04 03:37:14;;;;;;;20.95;13.82;;;;;;;6.03;41.95;101871.34;5094741;28;20127;-64
2022/03/04 03:39:41;;;;;;;21.58;14.75;;;;;;;6.00;42.02;101869.66;5092950;28;20135;-63
2022/03/04 03:42:08;;;;;;;22.88;14.07;;;;;;;6.00;42.06;101866.13;5093220;28;20043;-63
2022/03/04 03:44:34;;;;;;;23.27;14.32;;;;;;;5.98;42.10;101865.31;5094087;28;20508;-63
2022/03/04 03:47:02;;;;;;;23.58;14.80;;;;;;;5.96;42.15;101859.16;5094094;28;20043;-63
2022/03/04 03:49:28;;;;;;;24.05;13.90;;;;;;;5.93;42.22;101869.91;5092792;28;20470;-64
2022/03/04 03:51:55;;;;;;;26.73;14.25;;;;;;;5.91;42.38;101869.09;5094492;28;20036;-63
2022/03/04 03:54:22;;;;;;;22.60;15.25;;;;;;;5.88;42.32;101866.50;5094258;28;20048;-63
2022/03/04 03:56:49;;;;;;;22.98;14.57;;;;;;;5.86;42.34;101876.34;5094142;28;20082;-63
2022/03/04 03:59:16;;;;;;;23.52;15.27;;;;;;;5.85;42.35;101877.28;5094329;28;20139;-64
2022/03/04 04:01:42;;;;;;;22.80;14.65;;;;;;;5.82;42.38;101872.06;5093950;28;20040;-64
2022/03/04 04:04:12;;;;;;;24.23;14.93;;;;;;;5.79;42.38;101874.81;5093809;28;20044;-64
2022/03/04 04:06:40;;;;;;;22.98;14.52;;;;;;;5.75;42.50;101874.06;5093939;28;20093;-64
2022/03/04 04:09:08;;;;;;;24.00;14.60;;;;;;;5.73;42.65;101878.56;5093755;28;20568;-63
2022/03/04 04:11:36;;;;;;;24.23;14.82;;;;;;;5.70;42.71;101878.69;5093670;28;20050;-64
2022/03/04 04:14:07;;;;;;;21.38;14.60;;;;;;;5.66;42.81;101877.91;5093820;28;20050;-64
2022/03/04 04:16:34;;;;;;;23.85;15.30;;;;;;;5.61;42.57;101881.66;5094067;28;20075;-63
2022/03/04 04:19:02;;;;;;;23.80;15.43;;;;;;;5.56;42.77;101887.16;5093537;28;20504;-64
2022/03/04 04:21:29;;;;;;;25.40;15.38;;;;;;;5.54;42.63;101886.31;5093559;28;20075;-64
2022/03/04 04:23:56;;;;;;;23.17;15.43;;;;;;;5.54;42.90;101893.44;5093725;28;20107;-63
2022/03/04 04:26:23;;;;;;;29.02;16.23;;;;;;;5.51;42.95;101883.75;5093544;28;20412;-63
2022/03/04 04:28:51;;;;;;;24.35;15.48;;;;;;;5.50;43.14;101886.47;5093477;28;20040;-64
2022/03/04 04:31:18;;;;;;;23.85;15.52;;;;;;;5.51;43.08;101885.56;5093546;28;20040;-63
2022/03/04 04:33:45;;;;;;;23.45;14.90;;;;;;;5.53;43.15;101887.25;5093753;28;20048;-64
2022/03/04 04:36:12;;;;;;;25.48;16.42;;;;;;;5.55;43.10;101882.75;5093132;28;20114;-63
2022/03/04 04:38:39;;;;;;;25.13;16.23;;;;;;;5.53;43.28;101889.91;5072789;28;20110;-64
2022/03/04 04:41:06;;;;;;;24.42;14.82;;;;;;;5.53;43.21;101889.91;5073212;28;20047;-64
2022/03/04 04:43:33;;;;;;;28.83;16.52;;;;;;;5.54;43.11;101894.31;5088793;28;20075;-64
2022/03/04 04:46:01;;;;;;;25.88;16.85;;;;;;;5.52;43.28;101887.28;5071923;28;20054;-64
2022/03/04 04:48:28;;;;;;;26.63;16.30;;;;;;;5.51;43.42;101896.22;5073171;28;20120;-64
2022/03/04 04:50:56;;;;;;;26.92;16.67;;;;;;;5.49;43.38;101890.06;5073186;28;20071;-64
2022/03/04 04:53:22;;;;;;;27.58;16.75;;;;;;;5.48;43.36;101883.88;5083188;28;20435;-63
2022/03/04 04:55:50;;;;;;;27.33;16.35;;;;;;;5.47;43.45;101890.13;5092067;28;20629;-64
2022/03/04 04:58:17;;;;;;;27.83;16.10;;;;;;;5.45;43.47;101889.28;5093571;28;20070;-64
2022/03/04 05:00:50;;;;;;;29.20;18.08;;;;;;;5.41;43.50;101885.84;5093192;28;20051;-63
2022/03/04 05:03:17;;;;;;;28.35;16.15;;;;;;;5.39;43.53;101901.03;5093318;28;20044;-63
2022/03/04 05:05:44;;;;;;;27.35;15.90;;;;;;;5.34;43.66;101891.44;5091865;28;20044;-63
2022/03/04 05:08:10;;;;;;;30.35;17.70;;;;;;;5.31;43.56;101896.88;5092895;28;20062;-63
2022/03/04 05:10:38;;;;;;;28.30;17.63;;;;;;;5.27;43.79;101892.56;5093460;28;20052;-63
2022/03/04 05:13:04;;;;;;;26.27;16.52;;;;;;;5.25;43.55;101886.41;5093246;28;20101;-63
2022/03/04 05:15:31;;;;;;;27.58;17.17;;;;;;;5.26;43.73;101888.16;5093432;28;20127;-65
2022/03/04 05:17:57;;;;;;;27.48;16.23;;;;;;;5.24;43.93;101898.84;5092854;28;20534;-64
2022/03/04 05:20:24;;;;;;;27.52;16.77;;;;;;;5.24;43.96;101895.31;5092983;28;20562;-63
2022/03/04 05:22:51;;;;;;;26.73;17.60;;;;;;;5.25;43.77;101897.06;5092799;28;20097;-63
2022/03/04 05:25:17;;;;;;;29.60;17.08;;;;;;;5.24;44.00;101900.66;5093067;28;20048;-64
2022/03/04 05:27:45;;;;;;;25.17;15.90;;;;;;;5.23;43.96;101896.25;5092896;28;20044;-64
2022/03/04 05:30:12;;;;;;;28.73;17.52;;;;;;;5.22;43.95;101897.16;5093211;28;20485;-63
2022/03/04 05:32:39;;;;;;;26.40;16.80;;;;;;;5.22;44.11;101907.81;5092946;28;20047;-64
2022/03/04 05:35:06;;;;;;;29.45;16.77;;;;;;;5.20;44.09;101912.28;5092904;28;20047;-63
2022/03/04 05:37:37;;;;;;;29.63;17.42;;;;;;;5.20;44.23;101912.28;5091026;28;20051;-64
2022/03/04 05:40:05;;;;;;;31.27;17.42;;;;;;;5.19;44.30;101913.22;5092904;28;20040;-64
2022/03/04 05:42:31;;;;;;;28.48;17.35;;;;;;;5.17;44.23;101907.94;5092849;28;20059;-63
2022/03/04 05:44:58;;;;;;;30.63;18.30;;;;;;;5.13;44.29;101914.28;5092387;28;20052;-64
2022/03/04 05:47:25;;;;;;;29.33;17.33;;;;;;;5.11;44.30;101917.00;5092929;28;20097;-64
2022/03/04 05:49:51;;;;;;;30.88;17.77;;;;;;;5.08;44.47;101921.53;5092758;28;20070;-64
2022/03/04 05:52:18;;;;;;;31.45;19.33;;;;;;;5.05;44.57;101930.50;5095525;28;20044;-63
2022/03/04 05:54:45;;;;;;;31.80;18.27;;;;;;;5.00;44.58;101929.75;5095673;28;20524;-63
2022/03/04 05:57:11;;;;;;;32.90;18.45;;;;;;;4.99;44.81;101933.34;5096480;28;20424;-63
2022/03/04 05:59:38;;;;;;;32.72;18.88;;;;;;;4.96;44.78;101933.44;5096033;28;20036;-64
2022/03/04 06:02:05;;;;;;;33.97;18.60;;;;;;;4.95;45.00;101941.47;5098768;28;20119;-63
2022/03/04 06:04:32;;;;;;;33.38;18.98;;;;;;;4.92;45.07;101936.25;5099884;28;20454;-64
2022/03/04 06:06:58;;;;;;;29.63;18.15;;;;;;;4.88;45.06;101935.47;5092046;28;20127;-63
2022/03/04 06:09:28;;;;;;;33.08;19.08;;;;;;;4.86;45.24;101939.97;5089315;28;20135;-64
2022/03/04 06:11:56;;;;;;;34.10;19.75;;;;;;;4.87;45.41;101939.03;5095509;28;20046;-62
2022/03/04 06:14:22;;;;;;;33.03;20.00;;;;;;;4.87;45.56;101933.72;5090384;28;20115;-64
2022/03/04 06:16:49;;;;;;;30.85;18.13;;;;;;;4.88;45.70;101946.09;5094021;28;20115;-63
2022/03/04 06:19:16;;;;;;;34.67;19.55;;;;;;;4.88;45.52;101939.91;5078258;28;20047;-64
2022/03/04 06:21:42;;;;;;;33.72;20.73;;;;;;;4.86;45.90;101931.97;5092027;28;20086;-64
2022/03/04 06:24:09;;;;;;;31.70;20.17;;;;;;;4.87;45.67;101936.38;5091449;28;20043;-64
2022/03/04 06:26:35;;;;;;;37.25;21.00;;;;;;;4.86;45.74;101934.63;5094558;28;20101;-63
2022/03/04 06:29:02;;;;;;;32.80;19.50;;;;;;;4.86;45.98;101945.28;5095539;28;20044;-64
2022/03/04 06:31:29;;;;;;;33.55;18.67;;;;;;;4.86;45.97;101942.63;5095579;28;20489;-63
2022/03/04 06:33:55;;;;;;;34.38;19.38;;;;;;;4.86;46.03;101947.06;5095627;28;20064;-64
2022/03/04 06:36:22;;;;;;;31.52;19.17;;;;;;;4.87;46.19;101946.16;5091925;28;20037;-64
2022/03/04 06:38:48;;;;;;;35.95;19.38;;;;;;;4.86;46.05;101953.25;5090715;28;20093;-63
2022/03/04 06:41:15;;;;;;;33.92;19.88;;;;;;;4.85;46.28;101951.53;5095608;28;20097;-64
2022/03/04 06:43:43;;;;;;;32.42;19.25;;;;;;;4.86;46.30;101947.94;5094835;28;20040;-64
2022/03/04 06:46:10;;;;;;;32.90;19.63;;;;;;;4.89;46.29;101949.63;5087856;28;20130;-64
2022/03/04 06:48:37;;;;;;;34.45;19.80;;;;;;;4.92;46.54;101947.75;5089084;28;20097;-63
2022/03/04 06:51:29;;;;;;;31.45;19.70;;;;;;;4.93;46.53;101951.28;5095349;28;20106;-63
2022/03/04 06:53:56;;;;;;;36.03;20.40;;;;;;;4.96;46.60;101957.41;5095030;28;20075;-63
2022/03/04 06:56:22;;;;;;;35.22;21.10;;;;;;;4.98;46.60;101963.53;5095335;28;20131;-63
2022/03/04 06:58:50;;;;;;;32.97;20.08;;;;;;;5.01;46.53;101958.13;5086517;28;20512;-64
2022/03/04 07:01:17;;;;;;;30.33;18.30;;;;;;;5.03;46.54;101961.63;5085829;28;20505;-63
2022/03/04 07:03:44;;;;;;;32.05;18.45;;;;;;;5.05;46.68;101966.91;5087634;28;20039;-65
2022/03/04 07:06:11;;;;;;;33.75;18.95;;;;;;;5.07;46.69;101968.59;5089449;28;20072;-63
2022/03/04 07:08:37;;;;;;;31.70;19.75;;;;;;;5.11;46.69;101969.38;5085755;28;20036;-63
2022/03/04 07:11:04;;;;;;;31.52;19.38;;;;;;;5.14;46.59;101973.72;5089925;28;20097;-63
2022/03/04 07:13:31;;;;;;;30.40;18.92;;;;;;;5.16;46.84;101977.22;5090893;28;20074;-63
2022/03/04 07:15:58;;;;;;;30.20;18.25;;;;;;;5.19;46.88;101988.66;5091592;28;20067;-64
2022/03/04 07:18:29;;;;;;;35.38;19.88;;;;;;;5.23;46.77;101984.13;5094666;28;20039;-64
2022/03/04 07:21:00;;;;;;;32.67;18.75;;;;;;;5.27;47.06;101984.00;5088763;28;20123;-64
2022/03/04 07:23:28;;;;;;;30.92;18.23;;;;;;;5.34;47.09;101984.66;5094975;28;20051;-64
2022/03/04 07:25:54;;;;;;;27.10;17.15;;;;;;;5.43;46.98;101992.38;5094193;28;20048;-64
2022/03/04 07:28:21;;;;;;;33.15;18.63;;;;;;;5.56;47.18;101993.72;5083868;28;20206;-63
2022/03/04 07:30:47;;;;;;;31.77;18.10;;;;;;;5.71;47.35;101987.91;5091419;28;20068;-64
2022/03/04 07:33:14;;;;;;;32.55;18.33;;;;;;;5.88;47.38;101994.47;5094788;28;20043;-64
2022/03/04 07:35:45;;;;;;;30.05;17.58;;;;;;;6.04;47.23;101993.97;5090512;28;20037;-63
2022/03/04 07:38:13;;;;;;;29.90;17.95;;;;;;;6.27;47.33;101994.97;5089648;28;20159;-64
2022/03/04 07:40:45;;;;;;;26.65;16.23;;;;;;;6.50;47.24;101995.03;5084573;28;20045;-64
2022/03/04 07:43:12;;;;;;;29.05;17.25;;;;;;;6.71;47.16;101988.06;5084912;28;20501;-64
2022/03/04 07:45:39;;;;;;;28.98;17.20;;;;;;;6.92;47.00;101989.06;5092103;28;20130;-63
2022/03/04 07:48:06;;;;;;;29.70;17.58;;;;;;;7.15;47.10;101989.06;5092895;28;20401;-63
2022/03/04 07:50:33;;;;;;;26.17;16.13;;;;;;;7.34;46.85;101992.75;5093917;28;20068;-64
2022/03/04 07:52:59;;;;;;;27.25;16.92;;;;;;;7.52;46.60;101984.97;5094407;28;20130;-64
2022/03/04 07:55:26;;;;;;;28.73;16.02;;;;;;;7.68;46.48;101990.56;5093997;28;20101;-63
2022/03/04 07:57:55;;;;;;;27.88;16.90;;;;;;;7.80;46.27;101992.72;5093866;28;20040;-63
2022/03/04 08:00:24;;;;;;;30.52;17.33;;;;;;;7.92;46.25;101994.88;5094034;28;20471;-64
2022/03/04 08:02:52;;;;;;;26.92;16.27;;;;;;;8.06;46.07;101988.97;5094005;28;20149;-64
2022/03/04 08:05:20;;;;;;;27.25;16.75;;;;;;;8.13;45.94;101985.97;5092826;28;20427;-64
2022/03/04 08:07:46;;;;;;;27.52;17.73;;;;;;;8.20;45.78;102002.66;5093859;28;20040;-64
2022/03/04 08:10:13;;;;;;;26.67;16.75;;;;;;;8.27;45.77;101994.28;5093938;28;20531;-63
2022/03/04 08:12:40;;;;;;;28.15;16.88;;;;;;;8.36;45.65;101995.72;5093991;28;20453;-64
2022/03/04 08:15:10;;;;;;;28.10;16.98;;;;;;;8.50;45.61;102000.47;5093575;28;20070;-64
2022/03/04 08:17:39;;;;;;;25.73;16.73;;;;;;;8.66;45.64;102004.22;5093694;28;20063;-64
2022/03/04 08:20:06;;;;;;;24.52;16.55;;;;;;;8.83;45.37;102004.31;5093650;28;20044;-63
2022/03/04 08:22:32;;;;;;;30.00;15.70;;;;;;;8.98;45.22;102001.91;5093698;28;20044;-67
2022/03/04 08:24:59;;;;;;;28.83;16.17;;;;;;;9.14;45.08;102016.34;5092269;28;20405;-63
2022/03/04 08:27:26;;;;;;;25.67;16.77;;;;;;;9.33;45.02;102014.53;5093519;28;20040;-62
2022/03/04 08:29:53;;;;;;;28.92;16.90;;;;;;;9.51;44.72;102019.03;5093150;28;20047;-62
2022/03/04 08:32:23;;;;;;;26.50;15.55;;;;;;;9.68;44.64;102015.56;5093630;28;20114;-63
2022/03/04 08:34:56;;;;;;;25.40;15.88;;;;;;;9.81;44.27;102026.56;5093668;28;20051;-62
2022/03/04 08:37:22;;;;;;;25.88;17.27;;;;;;;9.93;44.15;102020.59;5092079;28;20048;-63
2022/03/04 08:39:49;;;;;;;27.00;15.95;;;;;;;10.02;43.94;102019.25;5093418;28;20550;-62
2022/03/04 08:42:16;;;;;;;58.92;17.85;;;;;;;10.11;43.76;102027.72;5091573;28;20040;-62
2022/03/04 08:44:42;;;;;;;26.05;15.52;;;;;;;10.19;43.62;102022.81;5072782;28;20048;-63
2022/03/04 08:47:09;;;;;;;22.58;15.63;;;;;;;10.31;43.54;102026.72;5073039;28;20044;-63
2022/03/04 08:49:36;;;;;;;26.20;16.35;;;;;;;10.44;43.67;102032.38;5072988;28;20551;-62
2022/03/04 08:52:03;;;;;;;28.27;17.92;;;;;;;10.55;43.16;102030.00;5073172;28;20489;-62
2022/03/04 08:54:31;;;;;;;24.95;16.02;;;;;;;10.66;43.12;102040.19;5073004;28;20055;-62
2022/03/04 08:56:57;;;;;;;25.63;15.45;;;;;;;10.76;42.89;102036.94;5073128;28;20040;-63
2022/03/04 08:59:24;;;;;;;25.95;15.68;;;;;;;10.88;42.81;102046.16;5072723;28;20037;-63
2022/03/04 09:01:51;;;;;;;24.45;16.50;;;;;;;10.98;42.56;102030.41;5073059;28;20040;-63
2022/03/04 09:04:18;;;;;;;25.27;15.38;;;;;;;11.10;42.33;102037.81;5073202;28;20041;-62
2022/03/04 09:06:46;;;;;;;27.10;15.70;;;;;;;11.23;42.59;102030.84;5072843;28;20101;-62
2022/03/04 09:09:14;;;;;;;27.45;16.05;;;;;;;11.36;42.16;102022.97;5073000;28;20040;-62
2022/03/04 09:11:41;;;;;;;23.88;15.75;;;;;;;11.48;42.01;102027.66;5072977;28;20448;-61
2022/03/04 09:14:08;;;;;;;28.38;15.93;;;;;;;11.57;41.83;102035.22;5072888;28;20051;-63
2022/03/04 09:16:34;;;;;;;27.40;15.02;;;;;;;11.65;41.52;102030.25;5072883;28;20482;-63
2022/03/04 09:19:02;;;;;;;24.42;15.80;;;;;;;11.70;41.33;102028.19;5074670;28;20036;-64
2022/03/04 09:21:29;;;;;;;24.52;15.82;;;;;;;11.75;41.24;102022.53;5092923;28;20101;-64
2022/03/04 09:23:56;;;;;;;24.48;15.88;;;;;;;11.77;41.20;102026.91;5091816;28;20452;-63
2022/03/04 09:26:23;;;;;;;23.98;16.70;;;;;;;11.83;41.04;102028.38;5095079;28;20102;-64
2022/03/04 09:28:49;;;;;;;23.77;15.35;;;;;;;11.88;40.90;102018.22;5095615;28;20105;-63
2022/03/04 09:31:16;;;;;;;25.85;16.45;;;;;;;11.94;40.89;102022.41;5095488;28;20477;-63
2022/03/04 09:33:43;;;;;;;23.25;15.60;;;;;;;12.01;40.66;102029.16;5097130;28;20036;-63
2022/03/04 09:36:12;;;;;;;25.80;16.08;;;;;;;12.01;40.42;102030.03;5097032;28;20055;-64
2022/03/04 09:38:39;;;;;;;23.77;15.35;;;;;;;12.03;40.34;102022.72;5096557;28;20044;-63
2022/03/04 09:41:06;;;;;;;26.40;17.02;;;;;;;12.11;40.33;102026.81;5095443;28;20040;-63
2022/03/04 09:43:33;;;;;;;26.75;15.15;;;;;;;12.17;40.28;102027.31;5096947;28;20169;-63
2022/03/04 09:46:00;;;;;;;27.00;16.13;;;;;;;12.23;40.23;102026.06;5096540;28;20484;-64
2022/03/04 09:48:27;;;;;;;22.08;14.70;;;;;;;12.27;40.10;102020.41;5096310;28;20086;-64
2022/03/04 09:50:54;;;;;;;23.52;15.23;;;;;;;12.35;40.10;102030.72;5096456;28;20044;-64
2022/03/04 09:53:21;;;;;;;20.55;14.55;;;;;;;12.43;40.01;102025.75;5094693;28;20040;-63
2022/03/04 09:55:47;;;;;;;23.73;15.43;;;;;;;12.54;39.71;102022.41;5096128;28;20048;-64
2022/03/04 09:58:16;;;;;;;24.02;16.00;;;;;;;12.64;39.55;102027.19;5096388;28;20086;-64
2022/03/04 10:00:45;;;;;;;24.50;15.80;;;;;;;12.71;39.38;102023.16;5096366;28;20056;-63
2022/03/04 10:03:41;;;;;;;24.23;16.92;;;;;;;12.79;39.38;102013.72;5096143;28;20046;-63
2022/03/04 10:06:08;;;;;;;24.05;16.25;;;;;;;12.87;39.14;102009.59;5095977;28;20119;-64
2022/03/04 10:08:39;;;;;;;22.08;15.35;;;;;;;12.94;39.08;102007.38;5096067;28;20070;-64
2022/03/04 10:11:06;;;;;;;23.85;16.08;;;;;;;13.00;38.94;102012.38;5096152;28;20040;-63
2022/03/04 10:13:56;;;;;;;24.83;16.15;;;;;;;13.08;38.89;102022.69;5096077;28;20043;-64
2022/03/04 10:16:24;;;;;;;23.75;15.48;;;;;;;13.19;38.90;102022.91;5095982;28;20512;-65
2022/03/04 10:19:33;;;;;;;24.75;16.80;;;;;;;13.28;38.78;102012.41;5095740;28;20044;-64
2022/03/04 10:22:05;;;;;;;23.13;16.00;;;;;;;13.42;38.65;102006.16;5053446;28;20080;-64
2022/03/04 10:24:38;;;;;;;23.15;15.88;;;;;;;13.51;38.41;102010.94;5053072;28;20136;-64
2022/03/04 10:27:10;;;;;;;25.17;16.30;;;;;;;13.57;38.34;102002.47;5078198;28;20127;-65
2022/03/04 10:29:43;;;;;;;23.17;16.20;;;;;;;13.65;38.06;102000.13;5095653;28;20485;-64
2022/03/04 10:32:20;;;;;;;25.20;17.10;;;;;;;13.75;38.28;102013.88;5095277;28;20409;-64
2022/03/04 10:34:58;;;;;;;25.02;16.60;;;;;;;13.87;38.07;102012.19;5095695;28;20131;-65
2022/03/04 10:37:52;;;;;;;26.20;16.70;;;;;;;13.93;37.97;102012.66;5094909;28;20040;-64
2022/03/04 10:40:42;;;;;;;25.38;15.65;;;;;;;14.05;37.78;102008.28;5094488;28;20119;-64
2022/03/04 10:43:11;;;;;;;22.73;16.70;;;;;;;14.15;37.75;101998.59;5095269;28;20089;-64
2022/03/04 10:45:41;;;;;;;24.20;16.95;;;;;;;14.24;37.53;102003.38;5095040;28;20036;-66
2022/03/04 10:48:12;;;;;;;24.23;16.25;;;;;;;14.35;37.50;101989.13;5094149;28;20051;-65
2022/03/04 10:50:40;;;;;;;24.90;16.25;;;;;;;14.44;37.15;101996.66;5095706;28;20044;-65
2022/03/04 10:53:09;;;;;;;26.77;16.23;;;;;;;14.52;37.09;101993.41;5095221;28;20450;-65
2022/03/04 10:55:45;;;;;;;22.65;15.80;;;;;;;14.61;37.00;102003.59;5094825;28;20070;-65
2022/03/04 10:58:16;;;;;;;;;;;;;;;14.70;36.82;101999.38;5095185;28;20401;-64
2022/03/04 11:00:46;;;;;;;24.17;17.13;;;;;;;14.86;36.72;102000.00;5094926;28;20401;-65
2022/03/04 11:03:18;;;;;;;26.85;16.77;;;;;;;14.98;36.78;102010.00;5095007;28;20044;-65
2022/03/04 11:05:46;;;;;;;23.25;15.93;;;;;;;15.02;36.37;102007.94;5094091;28;20044;-64
2022/03/04 11:08:13;;;;;;;22.40;16.70;;;;;;;15.06;36.14;102001.34;5095089;28;20415;-64
2022/03/04 11:10:40;;;;;;;22.52;15.32;;;;;;;15.09;36.06;102001.97;5094925;28;20083;-64
2022/03/04 11:13:08;;;;;;;24.83;15.98;;;;;;;15.17;35.69;101993.31;5094748;28;20082;-65
2022/03/04 11:15:36;;;;;;;22.25;16.30;;;;;;;15.25;35.65;101990.91;5094419;28;20047;-64
2022/03/04 11:18:06;;;;;;;22.40;15.95;;;;;;;15.30;35.50;101991.44;5094593;28;20044;-65
2022/03/04 11:20:33;;;;;;;23.48;16.35;;;;;;;15.35;35.70;101991.09;5094570;28;20437;-64